sensor_id;sensor_type;location;lat;lon;timestamp;P1;durP1;ratioP1;P2;durP2;ratioP2
62258;SDS011;48241;48.824;10.102;2023-06-04T00:02:26;4.13;;;1.63;;
62258;SDS011;48241;48.824;10.102;2023-06-04T00:04:51;2.35;;;1.73;;
62258;SDS011;48241;48.824;10.102;2023-06-04T00:07:17;4.80;;;1.65;;
62258;SDS011;48241;48.824;10.102;2023-06-04T00:09:42;3.58;;;1.23;;
62258;SDS011;48241;48.824;10.102;2023-06-04T00:12:10;4.60;;;1.80;;
62258;SDS011;48241;48.824;10.102;2023-06-04T00:14:36;3.15;;;1.60;;
62258;SDS011;48241;48.824;10.102;2023-06-04T00:17:01;4.07;;;1.67;;
62258;SDS011;48241;48.824;10.102;2023-06-04T00:19:27;3.05;;;1.58;;
62258;SDS011;48241;48.824;10.102;2023-06-04T00:21:52;2.80;;;1.60;;
62258;SDS011;48241;48.824;10.102;2023-06-04T00:24:18;3.22;;;1.50;;
62258;SDS011;48241;48.824;10.102;2023-06-04T00:26:44;3.70;;;1.33;;
62258;SDS011;48241;48.824;10.102;2023-06-04T00:29:09;2.10;;;1.48;;
62258;SDS011;48241;48.824;10.102;2023-06-04T00:31:35;2.50;;;1.67;;
62258;SDS011;48241;48.824;10.102;2023-06-04T00:34:01;1.90;;;1.38;;
62258;SDS011;48241;48.824;10.102;2023-06-04T00:36:28;2.65;;;1.40;;
62258;SDS011;48241;48.824;10.102;2023-06-04T00:38:53;3.55;;;1.40;;
62258;SDS011;48241;48.824;10.102;2023-06-04T00:41:19;4.68;;;1.70;;
62258;SDS011;48241;48.824;10.102;2023-06-04T00:43:45;3.03;;;1.33;;
62258;SDS011;48241;48.824;10.102;2023-06-04T00:46:20;3.15;;;1.40;;
62258;SDS011;48241;48.824;10.102;2023-06-04T00:48:47;1.95;;;1.52;;
62258;SDS011;48241;48.824;10.102;2023-06-04T00:51:12;3.10;;;1.40;;
62258;SDS011;48241;48.824;10.102;2023-06-04T00:53:38;2.05;;;1.15;;
62258;SDS011;48241;48.824;10.102;2023-06-04T00:56:04;3.97;;;1.60;;
62258;SDS011;48241;48.824;10.102;2023-06-04T00:58:30;2.95;;;1.13;;
62258;SDS011;48241;48.824;10.102;2023-06-04T01:00:57;4.20;;;1.42;;
62258;SDS011;48241;48.824;10.102;2023-06-04T01:03:28;2.28;;;1.20;;
62258;SDS011;48241;48.824;10.102;2023-06-04T01:06:18;3.30;;;1.20;;
62258;SDS011;48241;48.824;10.102;2023-06-04T01:08:51;2.22;;;1.30;;
62258;SDS011;48241;48.824;10.102;2023-06-04T01:11:19;5.13;;;1.45;;
62258;SDS011;48241;48.824;10.102;2023-06-04T01:13:59;3.28;;;1.40;;
62258;SDS011;48241;48.824;10.102;2023-06-04T01:16:26;5.45;;;1.50;;
62258;SDS011;48241;48.824;10.102;2023-06-04T01:18:54;2.85;;;1.38;;
62258;SDS011;48241;48.824;10.102;2023-06-04T01:21:24;4.55;;;1.30;;
62258;SDS011;48241;48.824;10.102;2023-06-04T01:23:52;3.65;;;1.30;;
62258;SDS011;48241;48.824;10.102;2023-06-04T01:26:26;3.15;;;1.30;;
62258;SDS011;48241;48.824;10.102;2023-06-04T01:28:53;2.25;;;1.20;;
62258;SDS011;48241;48.824;10.102;2023-06-04T01:31:20;2.38;;;1.38;;
62258;SDS011;48241;48.824;10.102;2023-06-04T01:33:51;2.28;;;1.40;;
62258;SDS011;48241;48.824;10.102;2023-06-04T01:36:23;1.67;;;1.20;;
62258;SDS011;48241;48.824;10.102;2023-06-04T01:38:49;2.65;;;1.15;;
62258;SDS011;48241;48.824;10.102;2023-06-04T01:41:15;4.03;;;1.13;;
62258;SDS011;48241;48.824;10.102;2023-06-04T01:43:41;3.03;;;1.40;;
62258;SDS011;48241;48.824;10.102;2023-06-04T01:46:07;2.70;;;1.40;;
62258;SDS011;48241;48.824;10.102;2023-06-04T01:48:32;2.83;;;1.20;;
62258;SDS011;48241;48.824;10.102;2023-06-04T01:50:58;2.67;;;1.30;;
62258;SDS011;48241;48.824;10.102;2023-06-04T01:53:23;2.10;;;1.40;;
62258;SDS011;48241;48.824;10.102;2023-06-04T01:55:49;2.45;;;1.17;;
62258;SDS011;48241;48.824;10.102;2023-06-04T01:58:18;2.17;;;1.40;;
62258;SDS011;48241;48.824;10.102;2023-06-04T02:00:55;3.03;;;1.30;;
62258;SDS011;48241;48.824;10.102;2023-06-04T02:05:51;3.15;;;1.30;;
62258;SDS011;48241;48.824;10.102;2023-06-04T02:08:16;3.33;;;1.60;;
62258;SDS011;48241;48.824;10.102;2023-06-04T02:10:48;2.72;;;1.40;;
62258;SDS011;48241;48.824;10.102;2023-06-04T02:13:14;3.72;;;1.33;;
62258;SDS011;48241;48.824;10.102;2023-06-04T02:15:40;4.70;;;1.45;;
62258;SDS011;48241;48.824;10.102;2023-06-04T02:18:15;2.60;;;1.35;;
62258;SDS011;48241;48.824;10.102;2023-06-04T02:20:47;3.35;;;1.30;;
62258;SDS011;48241;48.824;10.102;2023-06-04T02:23:15;1.65;;;1.30;;
62258;SDS011;48241;48.824;10.102;2023-06-04T02:25:42;3.42;;;1.65;;
62258;SDS011;48241;48.824;10.102;2023-06-04T02:28:11;2.47;;;1.23;;
62258;SDS011;48241;48.824;10.102;2023-06-04T02:30:37;3.67;;;1.45;;
62258;SDS011;48241;48.824;10.102;2023-06-04T02:33:03;2.95;;;1.42;;
62258;SDS011;48241;48.824;10.102;2023-06-04T02:35:29;4.03;;;1.23;;
62258;SDS011;48241;48.824;10.102;2023-06-04T02:37:55;5.13;;;1.60;;
62258;SDS011;48241;48.824;10.102;2023-06-04T02:40:23;3.45;;;1.42;;
62258;SDS011;48241;48.824;10.102;2023-06-04T02:42:50;2.80;;;1.17;;
62258;SDS011;48241;48.824;10.102;2023-06-04T02:45:17;2.67;;;1.50;;
62258;SDS011;48241;48.824;10.102;2023-06-04T02:47:42;3.78;;;1.50;;
62258;SDS011;48241;48.824;10.102;2023-06-04T02:50:08;2.90;;;1.48;;
62258;SDS011;48241;48.824;10.102;2023-06-04T02:52:34;5.05;;;1.50;;
62258;SDS011;48241;48.824;10.102;2023-06-04T02:55:02;2.85;;;1.50;;
62258;SDS011;48241;48.824;10.102;2023-06-04T02:57:32;2.30;;;1.40;;
62258;SDS011;48241;48.824;10.102;2023-06-04T02:59:58;2.90;;;1.20;;
62258;SDS011;48241;48.824;10.102;2023-06-04T03:02:24;3.28;;;1.33;;
62258;SDS011;48241;48.824;10.102;2023-06-04T03:04:50;2.40;;;1.58;;
62258;SDS011;48241;48.824;10.102;2023-06-04T03:07:17;4.95;;;1.27;;
62258;SDS011;48241;48.824;10.102;2023-06-04T03:09:46;2.03;;;1.20;;
62258;SDS011;48241;48.824;10.102;2023-06-04T03:12:12;2.15;;;1.40;;
62258;SDS011;48241;48.824;10.102;2023-06-04T03:14:38;2.50;;;1.30;;
62258;SDS011;48241;48.824;10.102;2023-06-04T03:17:04;4.85;;;1.30;;
62258;SDS011;48241;48.824;10.102;2023-06-04T03:19:35;1.60;;;1.20;;
62258;SDS011;48241;48.824;10.102;2023-06-04T03:22:02;4.18;;;1.48;;
62258;SDS011;48241;48.824;10.102;2023-06-04T03:24:30;2.13;;;1.30;;
62258;SDS011;48241;48.824;10.102;2023-06-04T03:26:58;3.55;;;1.17;;
62258;SDS011;48241;48.824;10.102;2023-06-04T03:29:24;2.70;;;1.30;;
62258;SDS011;48241;48.824;10.102;2023-06-04T03:31:49;2.78;;;1.70;;
62258;SDS011;48241;48.824;10.102;2023-06-04T03:34:15;3.03;;;1.17;;
62258;SDS011;48241;48.824;10.102;2023-06-04T03:36:40;3.50;;;1.58;;
62258;SDS011;48241;48.824;10.102;2023-06-04T03:39:07;3.55;;;1.38;;
62258;SDS011;48241;48.824;10.102;2023-06-04T03:41:32;3.58;;;1.25;;
62258;SDS011;48241;48.824;10.102;2023-06-04T03:43:58;3.70;;;1.45;;
62258;SDS011;48241;48.824;10.102;2023-06-04T03:46:23;1.70;;;1.40;;
62258;SDS011;48241;48.824;10.102;2023-06-04T03:48:51;3.35;;;1.52;;
62258;SDS011;48241;48.824;10.102;2023-06-04T03:51:17;2.75;;;1.30;;
62258;SDS011;48241;48.824;10.102;2023-06-04T03:53:42;5.15;;;1.40;;
62258;SDS011;48241;48.824;10.102;2023-06-04T03:56:08;2.17;;;1.40;;
62258;SDS011;48241;48.824;10.102;2023-06-04T03:58:34;2.63;;;1.30;;
62258;SDS011;48241;48.824;10.102;2023-06-04T04:01:01;3.55;;;1.30;;
62258;SDS011;48241;48.824;10.102;2023-06-04T04:03:29;2.45;;;1.48;;
62258;SDS011;48241;48.824;10.102;2023-06-04T04:05:56;2.30;;;1.42;;
62258;SDS011;48241;48.824;10.102;2023-06-04T04:08:22;3.15;;;1.60;;
62258;SDS011;48241;48.824;10.102;2023-06-04T04:10:48;2.58;;;1.40;;
62258;SDS011;48241;48.824;10.102;2023-06-04T04:13:14;2.15;;;1.50;;
62258;SDS011;48241;48.824;10.102;2023-06-04T04:15:40;2.92;;;1.40;;
62258;SDS011;48241;48.824;10.102;2023-06-04T04:18:05;2.38;;;1.40;;
62258;SDS011;48241;48.824;10.102;2023-06-04T04:20:33;2.38;;;1.70;;
62258;SDS011;48241;48.824;10.102;2023-06-04T04:22:59;3.10;;;1.40;;
62258;SDS011;48241;48.824;10.102;2023-06-04T04:25:24;3.83;;;1.73;;
62258;SDS011;48241;48.824;10.102;2023-06-04T04:27:50;4.00;;;1.60;;
62258;SDS011;48241;48.824;10.102;2023-06-04T04:30:15;2.78;;;1.45;;
62258;SDS011;48241;48.824;10.102;2023-06-04T04:32:42;2.70;;;1.50;;
62258;SDS011;48241;48.824;10.102;2023-06-04T04:35:13;2.85;;;1.50;;
62258;SDS011;48241;48.824;10.102;2023-06-04T04:37:39;2.88;;;1.30;;
62258;SDS011;48241;48.824;10.102;2023-06-04T04:40:06;2.28;;;1.40;;
62258;SDS011;48241;48.824;10.102;2023-06-04T04:42:34;2.25;;;1.23;;
62258;SDS011;48241;48.824;10.102;2023-06-04T04:45:00;2.20;;;1.50;;
62258;SDS011;48241;48.824;10.102;2023-06-04T04:47:26;3.65;;;1.73;;
62258;SDS011;48241;48.824;10.102;2023-06-04T04:49:51;3.78;;;1.60;;
62258;SDS011;48241;48.824;10.102;2023-06-04T04:52:17;3.08;;;1.40;;
62258;SDS011;48241;48.824;10.102;2023-06-04T04:54:43;4.20;;;1.60;;
62258;SDS011;48241;48.824;10.102;2023-06-04T04:57:08;2.65;;;1.50;;
62258;SDS011;48241;48.824;10.102;2023-06-04T04:59:34;5.20;;;1.75;;
62258;SDS011;48241;48.824;10.102;2023-06-04T05:02:00;4.45;;;1.40;;
62258;SDS011;48241;48.824;10.102;2023-06-04T05:04:25;2.15;;;1.70;;
62258;SDS011;48241;48.824;10.102;2023-06-04T05:06:51;2.75;;;1.45;;
62258;SDS011;48241;48.824;10.102;2023-06-04T05:09:16;2.47;;;1.40;;
62258;SDS011;48241;48.824;10.102;2023-06-04T05:11:42;2.00;;;1.30;;
62258;SDS011;48241;48.824;10.102;2023-06-04T05:14:07;2.35;;;1.52;;
62258;SDS011;48241;48.824;10.102;2023-06-04T05:16:33;2.55;;;1.45;;
62258;SDS011;48241;48.824;10.102;2023-06-04T05:19:00;1.98;;;1.30;;
62258;SDS011;48241;48.824;10.102;2023-06-04T05:21:27;2.53;;;1.45;;
62258;SDS011;48241;48.824;10.102;2023-06-04T05:23:53;4.32;;;1.45;;
62258;SDS011;48241;48.824;10.102;2023-06-04T05:26:20;3.33;;;1.50;;
62258;SDS011;48241;48.824;10.102;2023-06-04T05:28:53;1.95;;;1.42;;
62258;SDS011;48241;48.824;10.102;2023-06-04T05:31:18;2.58;;;1.42;;
62258;SDS011;48241;48.824;10.102;2023-06-04T05:33:44;5.20;;;1.80;;
62258;SDS011;48241;48.824;10.102;2023-06-04T05:36:10;2.17;;;1.42;;
62258;SDS011;48241;48.824;10.102;2023-06-04T05:38:37;3.20;;;1.55;;
62258;SDS011;48241;48.824;10.102;2023-06-04T05:41:02;3.42;;;1.60;;
62258;SDS011;48241;48.824;10.102;2023-06-04T05:43:28;3.13;;;1.67;;
62258;SDS011;48241;48.824;10.102;2023-06-04T05:45:54;3.22;;;1.50;;
62258;SDS011;48241;48.824;10.102;2023-06-04T05:48:20;3.22;;;1.52;;
62258;SDS011;48241;48.824;10.102;2023-06-04T05:50:45;3.35;;;1.60;;
62258;SDS011;48241;48.824;10.102;2023-06-04T05:53:12;2.28;;;1.52;;
62258;SDS011;48241;48.824;10.102;2023-06-04T05:55:38;1.90;;;1.70;;
62258;SDS011;48241;48.824;10.102;2023-06-04T05:58:03;3.15;;;1.70;;
62258;SDS011;48241;48.824;10.102;2023-06-04T06:00:29;3.55;;;1.80;;
62258;SDS011;48241;48.824;10.102;2023-06-04T06:02:55;3.33;;;1.70;;
62258;SDS011;48241;48.824;10.102;2023-06-04T06:05:21;2.75;;;1.70;;
62258;SDS011;48241;48.824;10.102;2023-06-04T06:07:46;2.92;;;1.70;;
62258;SDS011;48241;48.824;10.102;2023-06-04T06:10:12;3.40;;;2.03;;
62258;SDS011;48241;48.824;10.102;2023-06-04T06:12:38;2.80;;;1.67;;
62258;SDS011;48241;48.824;10.102;2023-06-04T06:15:05;3.05;;;1.80;;
62258;SDS011;48241;48.824;10.102;2023-06-04T06:17:33;4.47;;;1.63;;
62258;SDS011;48241;48.824;10.102;2023-06-04T06:20:00;1.90;;;1.55;;
62258;SDS011;48241;48.824;10.102;2023-06-04T06:22:36;2.53;;;1.70;;
62258;SDS011;48241;48.824;10.102;2023-06-04T06:25:07;4.05;;;1.77;;
62258;SDS011;48241;48.824;10.102;2023-06-04T06:27:40;2.30;;;1.80;;
62258;SDS011;48241;48.824;10.102;2023-06-04T06:30:07;2.63;;;2.03;;
62258;SDS011;48241;48.824;10.102;2023-06-04T06:32:34;2.75;;;1.88;;
62258;SDS011;48241;48.824;10.102;2023-06-04T06:35:00;2.63;;;1.77;;
62258;SDS011;48241;48.824;10.102;2023-06-04T06:37:26;4.80;;;2.00;;
62258;SDS011;48241;48.824;10.102;2023-06-04T06:39:52;3.63;;;1.90;;
62258;SDS011;48241;48.824;10.102;2023-06-04T06:42:17;3.35;;;1.95;;
62258;SDS011;48241;48.824;10.102;2023-06-04T06:44:44;2.28;;;1.80;;
62258;SDS011;48241;48.824;10.102;2023-06-04T06:47:10;1.90;;;1.67;;
62258;SDS011;48241;48.824;10.102;2023-06-04T06:49:38;2.08;;;1.83;;
62258;SDS011;48241;48.824;10.102;2023-06-04T06:52:04;4.25;;;2.08;;
62258;SDS011;48241;48.824;10.102;2023-06-04T06:54:30;2.75;;;1.98;;
62258;SDS011;48241;48.824;10.102;2023-06-04T06:56:55;2.88;;;1.95;;
62258;SDS011;48241;48.824;10.102;2023-06-04T06:59:21;2.88;;;1.98;;
62258;SDS011;48241;48.824;10.102;2023-06-04T07:01:47;2.40;;;1.83;;
62258;SDS011;48241;48.824;10.102;2023-06-04T07:04:12;3.22;;;1.90;;
62258;SDS011;48241;48.824;10.102;2023-06-04T07:06:38;3.30;;;2.10;;
62258;SDS011;48241;48.824;10.102;2023-06-04T07:09:03;3.45;;;2.03;;
62258;SDS011;48241;48.824;10.102;2023-06-04T07:11:31;2.50;;;1.85;;
62258;SDS011;48241;48.824;10.102;2023-06-04T07:13:56;2.15;;;1.80;;
62258;SDS011;48241;48.824;10.102;2023-06-04T07:16:22;5.15;;;2.08;;
62258;SDS011;48241;48.824;10.102;2023-06-04T07:18:48;4.80;;;1.80;;
62258;SDS011;48241;48.824;10.102;2023-06-04T07:21:15;2.90;;;1.83;;
62258;SDS011;48241;48.824;10.102;2023-06-04T07:23:41;4.80;;;1.83;;
62258;SDS011;48241;48.824;10.102;2023-06-04T07:26:06;3.20;;;2.00;;
62258;SDS011;48241;48.824;10.102;2023-06-04T07:28:32;3.08;;;2.03;;
62258;SDS011;48241;48.824;10.102;2023-06-04T07:30:58;2.45;;;1.95;;
62258;SDS011;48241;48.824;10.102;2023-06-04T07:33:24;3.92;;;1.90;;
62258;SDS011;48241;48.824;10.102;2023-06-04T07:35:50;2.33;;;1.95;;
62258;SDS011;48241;48.824;10.102;2023-06-04T07:38:16;2.30;;;1.83;;
62258;SDS011;48241;48.824;10.102;2023-06-04T07:40:43;4.18;;;1.90;;
62258;SDS011;48241;48.824;10.102;2023-06-04T07:43:10;4.13;;;2.10;;
62258;SDS011;48241;48.824;10.102;2023-06-04T07:45:35;5.50;;;2.20;;
62258;SDS011;48241;48.824;10.102;2023-06-04T07:48:01;2.45;;;1.83;;
62258;SDS011;48241;48.824;10.102;2023-06-04T07:50:26;3.10;;;1.90;;
62258;SDS011;48241;48.824;10.102;2023-06-04T07:52:52;2.63;;;1.80;;
62258;SDS011;48241;48.824;10.102;2023-06-04T07:55:18;3.72;;;1.80;;
62258;SDS011;48241;48.824;10.102;2023-06-04T07:57:43;2.05;;;1.70;;
62258;SDS011;48241;48.824;10.102;2023-06-04T08:00:10;3.40;;;2.00;;
62258;SDS011;48241;48.824;10.102;2023-06-04T08:02:36;3.05;;;2.00;;
62258;SDS011;48241;48.824;10.102;2023-06-04T08:05:02;2.72;;;1.80;;
62258;SDS011;48241;48.824;10.102;2023-06-04T08:07:28;4.82;;;1.92;;
62258;SDS011;48241;48.824;10.102;2023-06-04T08:09:54;2.38;;;1.77;;
62258;SDS011;48241;48.824;10.102;2023-06-04T08:12:21;2.88;;;1.85;;
62258;SDS011;48241;48.824;10.102;2023-06-04T08:14:47;2.58;;;1.85;;
62258;SDS011;48241;48.824;10.102;2023-06-04T08:17:12;2.38;;;1.80;;
62258;SDS011;48241;48.824;10.102;2023-06-04T08:19:38;3.75;;;1.65;;
62258;SDS011;48241;48.824;10.102;2023-06-04T08:22:03;3.63;;;2.00;;
62258;SDS011;48241;48.824;10.102;2023-06-04T08:24:30;2.45;;;1.80;;
62258;SDS011;48241;48.824;10.102;2023-06-04T08:26:55;4.25;;;1.75;;
62258;SDS011;48241;48.824;10.102;2023-06-04T08:29:21;4.00;;;2.20;;
62258;SDS011;48241;48.824;10.102;2023-06-04T08:31:46;2.00;;;1.80;;
62258;SDS011;48241;48.824;10.102;2023-06-04T08:34:12;3.60;;;2.20;;
62258;SDS011;48241;48.824;10.102;2023-06-04T08:36:37;2.90;;;1.90;;
62258;SDS011;48241;48.824;10.102;2023-06-04T08:39:03;3.97;;;1.92;;
62258;SDS011;48241;48.824;10.102;2023-06-04T08:41:30;3.40;;;2.22;;
62258;SDS011;48241;48.824;10.102;2023-06-04T08:44:02;2.58;;;1.80;;
62258;SDS011;48241;48.824;10.102;2023-06-04T08:46:31;3.40;;;2.17;;
62258;SDS011;48241;48.824;10.102;2023-06-04T08:48:59;3.35;;;2.13;;
62258;SDS011;48241;48.824;10.102;2023-06-04T08:51:27;3.17;;;2.22;;
62258;SDS011;48241;48.824;10.102;2023-06-04T08:53:57;2.40;;;1.98;;
62258;SDS011;48241;48.824;10.102;2023-06-04T08:56:24;2.15;;;1.80;;
62258;SDS011;48241;48.824;10.102;2023-06-04T08:58:51;2.70;;;2.05;;
62258;SDS011;48241;48.824;10.102;2023-06-04T09:01:18;2.90;;;2.22;;
62258;SDS011;48241;48.824;10.102;2023-06-04T09:03:44;3.92;;;2.20;;
62258;SDS011;48241;48.824;10.102;2023-06-04T09:06:10;3.88;;;2.00;;
62258;SDS011;48241;48.824;10.102;2023-06-04T09:08:37;4.65;;;2.42;;
62258;SDS011;48241;48.824;10.102;2023-06-04T09:11:05;3.38;;;2.55;;
62258;SDS011;48241;48.824;10.102;2023-06-04T09:13:32;3.58;;;2.30;;
62258;SDS011;48241;48.824;10.102;2023-06-04T09:16:02;4.93;;;2.28;;
62258;SDS011;48241;48.824;10.102;2023-06-04T09:18:29;3.53;;;2.45;;
62258;SDS011;48241;48.824;10.102;2023-06-04T09:21:07;6.18;;;2.55;;
62258;SDS011;48241;48.824;10.102;2023-06-04T09:23:37;3.10;;;2.15;;
62258;SDS011;48241;48.824;10.102;2023-06-04T09:26:08;2.92;;;2.15;;
62258;SDS011;48241;48.824;10.102;2023-06-04T09:28:34;3.40;;;2.20;;
62258;SDS011;48241;48.824;10.102;2023-06-04T09:31:01;2.58;;;1.98;;
62258;SDS011;48241;48.824;10.102;2023-06-04T09:33:29;3.05;;;2.00;;
62258;SDS011;48241;48.824;10.102;2023-06-04T09:35:58;4.85;;;2.40;;
62258;SDS011;48241;48.824;10.102;2023-06-04T09:38:32;2.85;;;2.28;;
62258;SDS011;48241;48.824;10.102;2023-06-04T09:41:01;2.65;;;2.13;;
62258;SDS011;48241;48.824;10.102;2023-06-04T09:43:31;3.33;;;2.10;;
62258;SDS011;48241;48.824;10.102;2023-06-04T09:46:12;3.17;;;2.33;;
62258;SDS011;48241;48.824;10.102;2023-06-04T09:48:39;4.22;;;2.47;;
62258;SDS011;48241;48.824;10.102;2023-06-04T09:51:09;3.88;;;2.53;;
62258;SDS011;48241;48.824;10.102;2023-06-04T09:53:37;4.55;;;2.50;;
62258;SDS011;48241;48.824;10.102;2023-06-04T09:56:03;3.20;;;2.03;;
62258;SDS011;48241;48.824;10.102;2023-06-04T09:58:31;3.35;;;2.38;;
62258;SDS011;48241;48.824;10.102;2023-06-04T10:00:58;2.72;;;2.20;;
62258;SDS011;48241;48.824;10.102;2023-06-04T10:03:25;2.90;;;2.30;;
62258;SDS011;48241;48.824;10.102;2023-06-04T10:05:56;4.05;;;2.60;;
62258;SDS011;48241;48.824;10.102;2023-06-04T10:08:22;2.45;;;2.08;;
62258;SDS011;48241;48.824;10.102;2023-06-04T10:10:50;2.63;;;2.40;;
62258;SDS011;48241;48.824;10.102;2023-06-04T10:13:19;3.72;;;2.10;;
62258;SDS011;48241;48.824;10.102;2023-06-04T10:15:46;3.40;;;2.22;;
62258;SDS011;48241;48.824;10.102;2023-06-04T10:18:13;3.40;;;2.38;;
62258;SDS011;48241;48.824;10.102;2023-06-04T10:20:40;2.78;;;2.05;;
62258;SDS011;48241;48.824;10.102;2023-06-04T10:23:06;3.00;;;2.40;;
62258;SDS011;48241;48.824;10.102;2023-06-04T10:25:34;4.47;;;2.30;;
62258;SDS011;48241;48.824;10.102;2023-06-04T10:28:03;2.67;;;2.30;;
62258;SDS011;48241;48.824;10.102;2023-06-04T10:30:29;4.60;;;2.53;;
62258;SDS011;48241;48.824;10.102;2023-06-04T10:32:56;2.67;;;2.17;;
62258;SDS011;48241;48.824;10.102;2023-06-04T10:35:35;4.00;;;2.40;;
62258;SDS011;48241;48.824;10.102;2023-06-04T10:38:19;3.28;;;2.67;;
62258;SDS011;48241;48.824;10.102;2023-06-04T10:40:46;4.18;;;2.80;;
62258;SDS011;48241;48.824;10.102;2023-06-04T10:43:13;3.63;;;2.75;;
62258;SDS011;48241;48.824;10.102;2023-06-04T10:45:41;2.78;;;2.50;;
62258;SDS011;48241;48.824;10.102;2023-06-04T10:48:11;3.78;;;2.78;;
62258;SDS011;48241;48.824;10.102;2023-06-04T10:50:50;4.05;;;2.70;;
62258;SDS011;48241;48.824;10.102;2023-06-04T10:53:18;3.78;;;2.60;;
62258;SDS011;48241;48.824;10.102;2023-06-04T10:55:45;3.42;;;2.70;;
62258;SDS011;48241;48.824;10.102;2023-06-04T10:58:12;4.63;;;2.80;;
62258;SDS011;48241;48.824;10.102;2023-06-04T11:00:38;3.78;;;2.92;;
62258;SDS011;48241;48.824;10.102;2023-06-04T11:03:05;6.68;;;3.03;;
62258;SDS011;48241;48.824;10.102;2023-06-04T11:05:38;3.90;;;2.78;;
62258;SDS011;48241;48.824;10.102;2023-06-04T11:08:04;5.25;;;3.00;;
62258;SDS011;48241;48.824;10.102;2023-06-04T11:10:41;3.40;;;2.85;;
62258;SDS011;48241;48.824;10.102;2023-06-04T11:13:08;3.25;;;2.47;;
62258;SDS011;48241;48.824;10.102;2023-06-04T11:15:38;3.75;;;2.95;;
62258;SDS011;48241;48.824;10.102;2023-06-04T11:18:04;4.35;;;2.72;;
62258;SDS011;48241;48.824;10.102;2023-06-04T11:20:30;3.90;;;2.88;;
62258;SDS011;48241;48.824;10.102;2023-06-04T11:22:56;3.90;;;2.95;;
62258;SDS011;48241;48.824;10.102;2023-06-04T11:25:24;4.13;;;3.15;;
62258;SDS011;48241;48.824;10.102;2023-06-04T11:27:54;3.88;;;2.78;;
62258;SDS011;48241;48.824;10.102;2023-06-04T11:30:21;4.32;;;3.20;;
62258;SDS011;48241;48.824;10.102;2023-06-04T11:32:48;4.85;;;3.00;;
62258;SDS011;48241;48.824;10.102;2023-06-04T11:35:14;3.85;;;3.38;;
62258;SDS011;48241;48.824;10.102;2023-06-04T11:37:39;3.22;;;2.92;;
62258;SDS011;48241;48.824;10.102;2023-06-04T11:40:15;6.40;;;3.00;;
62258;SDS011;48241;48.824;10.102;2023-06-04T11:42:42;3.20;;;2.90;;
62258;SDS011;48241;48.824;10.102;2023-06-04T11:45:09;6.45;;;2.95;;
62258;SDS011;48241;48.824;10.102;2023-06-04T11:47:39;5.07;;;2.88;;
62258;SDS011;48241;48.824;10.102;2023-06-04T11:50:06;5.25;;;2.97;;
62258;SDS011;48241;48.824;10.102;2023-06-04T11:52:33;3.83;;;3.35;;
62258;SDS011;48241;48.824;10.102;2023-06-04T11:54:59;4.05;;;3.15;;
62258;SDS011;48241;48.824;10.102;2023-06-04T11:57:25;4.00;;;3.40;;
62258;SDS011;48241;48.824;10.102;2023-06-04T11:59:50;4.63;;;3.30;;
62258;SDS011;48241;48.824;10.102;2023-06-04T12:02:16;6.38;;;2.88;;
62258;SDS011;48241;48.824;10.102;2023-06-04T12:04:43;2.88;;;2.53;;
62258;SDS011;48241;48.824;10.102;2023-06-04T12:07:09;4.63;;;3.20;;
62258;SDS011;48241;48.824;10.102;2023-06-04T12:09:35;4.35;;;3.10;;
62258;SDS011;48241;48.824;10.102;2023-06-04T12:12:06;3.88;;;3.03;;
62258;SDS011;48241;48.824;10.102;2023-06-04T12:14:33;4.25;;;3.20;;
62258;SDS011;48241;48.824;10.102;2023-06-04T12:17:17;3.80;;;3.05;;
62258;SDS011;48241;48.824;10.102;2023-06-04T12:19:46;4.50;;;3.03;;
62258;SDS011;48241;48.824;10.102;2023-06-04T12:22:15;4.35;;;2.90;;
62258;SDS011;48241;48.824;10.102;2023-06-04T12:24:51;3.90;;;2.92;;
62258;SDS011;48241;48.824;10.102;2023-06-04T12:27:27;4.32;;;3.15;;
62258;SDS011;48241;48.824;10.102;2023-06-04T12:30:00;5.13;;;3.10;;
62258;SDS011;48241;48.824;10.102;2023-06-04T12:32:30;6.03;;;2.90;;
62258;SDS011;48241;48.824;10.102;2023-06-04T12:34:59;4.75;;;3.28;;
62258;SDS011;48241;48.824;10.102;2023-06-04T12:37:24;3.97;;;3.33;;
62258;SDS011;48241;48.824;10.102;2023-06-04T12:39:50;3.70;;;3.40;;
62258;SDS011;48241;48.824;10.102;2023-06-04T12:42:16;4.47;;;2.80;;
62258;SDS011;48241;48.824;10.102;2023-06-04T12:44:43;3.20;;;2.90;;
62258;SDS011;48241;48.824;10.102;2023-06-04T12:47:09;3.67;;;3.15;;
62258;SDS011;48241;48.824;10.102;2023-06-04T12:49:35;6.47;;;2.92;;
62258;SDS011;48241;48.824;10.102;2023-06-04T12:52:01;3.13;;;2.80;;
62258;SDS011;48241;48.824;10.102;2023-06-04T12:54:27;5.22;;;3.22;;
62258;SDS011;48241;48.824;10.102;2023-06-04T12:56:53;3.28;;;2.97;;
62258;SDS011;48241;48.824;10.102;2023-06-04T12:59:21;4.22;;;2.70;;
62258;SDS011;48241;48.824;10.102;2023-06-04T13:01:47;5.10;;;3.00;;
62258;SDS011;48241;48.824;10.102;2023-06-04T13:04:13;3.72;;;3.10;;
62258;SDS011;48241;48.824;10.102;2023-06-04T13:06:38;5.13;;;3.00;;
62258;SDS011;48241;48.824;10.102;2023-06-04T13:09:05;3.78;;;3.03;;
62258;SDS011;48241;48.824;10.102;2023-06-04T13:11:43;3.30;;;3.00;;
62258;SDS011;48241;48.824;10.102;2023-06-04T13:14:09;4.05;;;2.83;;
62258;SDS011;48241;48.824;10.102;2023-06-04T13:16:35;4.43;;;2.97;;
62258;SDS011;48241;48.824;10.102;2023-06-04T13:19:01;5.97;;;2.80;;
62258;SDS011;48241;48.824;10.102;2023-06-04T13:21:27;4.28;;;2.92;;
62258;SDS011;48241;48.824;10.102;2023-06-04T13:23:53;5.07;;;3.42;;
62258;SDS011;48241;48.824;10.102;2023-06-04T13:26:19;3.95;;;3.10;;
62258;SDS011;48241;48.824;10.102;2023-06-04T13:28:45;4.80;;;3.90;;
62258;SDS011;48241;48.824;10.102;2023-06-04T13:31:11;4.05;;;3.42;;
62258;SDS011;48241;48.824;10.102;2023-06-04T13:33:37;5.00;;;3.40;;
62258;SDS011;48241;48.824;10.102;2023-06-04T13:36:03;4.03;;;3.63;;
62258;SDS011;48241;48.824;10.102;2023-06-04T13:38:29;6.00;;;3.70;;
62258;SDS011;48241;48.824;10.102;2023-06-04T13:40:55;4.03;;;2.80;;
62258;SDS011;48241;48.824;10.102;2023-06-04T13:43:21;5.15;;;2.80;;
62258;SDS011;48241;48.824;10.102;2023-06-04T13:45:46;4.00;;;2.70;;
62258;SDS011;48241;48.824;10.102;2023-06-04T13:48:12;4.50;;;3.00;;
62258;SDS011;48241;48.824;10.102;2023-06-04T13:50:37;5.45;;;2.90;;
62258;SDS011;48241;48.824;10.102;2023-06-04T13:53:03;4.03;;;2.83;;
62258;SDS011;48241;48.824;10.102;2023-06-04T13:55:29;2.97;;;2.60;;
62258;SDS011;48241;48.824;10.102;2023-06-04T13:57:55;4.57;;;2.72;;
62258;SDS011;48241;48.824;10.102;2023-06-04T14:00:21;4.28;;;2.65;;
62258;SDS011;48241;48.824;10.102;2023-06-04T14:02:47;3.45;;;2.60;;
62258;SDS011;48241;48.824;10.102;2023-06-04T14:05:13;4.05;;;3.00;;
62258;SDS011;48241;48.824;10.102;2023-06-04T14:07:41;4.47;;;3.00;;
62258;SDS011;48241;48.824;10.102;2023-06-04T14:10:07;5.03;;;3.15;;
62258;SDS011;48241;48.824;10.102;2023-06-04T14:12:33;5.30;;;3.20;;
62258;SDS011;48241;48.824;10.102;2023-06-04T14:14:59;4.03;;;3.30;;
62258;SDS011;48241;48.824;10.102;2023-06-04T14:17:24;4.93;;;2.97;;
62258;SDS011;48241;48.824;10.102;2023-06-04T14:19:50;7.18;;;3.40;;
62258;SDS011;48241;48.824;10.102;2023-06-04T14:22:15;3.58;;;3.13;;
62258;SDS011;48241;48.824;10.102;2023-06-04T14:24:41;3.45;;;2.78;;
62258;SDS011;48241;48.824;10.102;2023-06-04T14:27:07;3.13;;;2.83;;
62258;SDS011;48241;48.824;10.102;2023-06-04T14:29:34;4.25;;;2.83;;
62258;SDS011;48241;48.824;10.102;2023-06-04T14:32:01;3.38;;;2.80;;
62258;SDS011;48241;48.824;10.102;2023-06-04T14:34:26;6.78;;;3.03;;
62258;SDS011;48241;48.824;10.102;2023-06-04T14:36:52;3.10;;;2.80;;